createdAt,value
2018-12-17T00:00:52.861Z,1016.88
2018-12-17T00:01:52.999Z,1016.89
2018-12-17T00:02:52.900Z,1016.85
2018-12-17T00:03:52.947Z,1016.9
2018-12-17T00:04:53.132Z,1016.91
2018-12-17T00:05:52.936Z,1016.9
2018-12-17T00:06:52.823Z,1016.93
2018-12-17T00:07:52.969Z,1016.95
2018-12-17T00:08:52.994Z,1016.92
2018-12-17T00:09:52.825Z,1016.95
2018-12-17T00:10:53.174Z,1016.91
2018-12-17T00:11:53.062Z,1016.9
2018-12-17T00:12:52.954Z,1016.91
2018-12-17T00:13:52.956Z,1016.92
2018-12-17T00:14:53.000Z,1016.9
2018-12-17T00:15:52.980Z,1016.87
2018-12-17T00:16:53.179Z,1016.87
2018-12-17T00:17:52.802Z,1016.84
2018-12-17T00:18:52.911Z,1016.84
2018-12-17T00:19:53.071Z,1016.85
2018-12-17T00:20:52.881Z,1016.84
2018-12-17T00:21:53.168Z,1016.87
2018-12-17T00:22:52.853Z,1016.88
2018-12-17T00:23:52.924Z,1016.9
2018-12-17T00:24:52.805Z,1016.88
2018-12-17T00:25:52.814Z,1016.91
2018-12-17T00:26:52.896Z,1016.86
2018-12-17T00:27:52.937Z,1016.92
2018-12-17T00:28:53.028Z,1016.88
2018-12-17T00:29:52.798Z,1016.86
2018-12-17T00:30:52.970Z,1016.87
2018-12-17T00:31:52.954Z,1016.83
2018-12-17T00:32:53.121Z,1016.84
2018-12-17T00:33:52.954Z,1016.8
2018-12-17T00:34:52.862Z,1016.81
2018-12-17T00:35:52.928Z,1016.88
2018-12-17T00:36:52.945Z,1016.82
2018-12-17T00:37:53.081Z,1016.84
2018-12-17T00:38:52.956Z,1016.83
2018-12-17T00:39:53.168Z,1016.83
2018-12-17T00:40:52.834Z,1016.89
2018-12-17T00:41:52.994Z,1016.9
2018-12-17T00:42:52.938Z,1016.91
2018-12-17T00:43:53.646Z,1016.96
2018-12-17T00:44:52.760Z,1016.92
2018-12-17T00:45:53.056Z,1016.93
2018-12-17T00:46:52.769Z,1016.93
2018-12-17T00:47:52.936Z,1016.93
2018-12-17T00:48:52.970Z,1016.92
2018-12-17T00:49:52.933Z,1016.86
2018-12-17T00:50:52.778Z,1016.91
2018-12-17T00:51:53.113Z,1016.95
2018-12-17T00:52:53.039Z,1016.93
2018-12-17T00:53:52.786Z,1016.92
2018-12-17T00:54:53.038Z,1016.92
2018-12-17T00:55:52.752Z,1016.93
2018-12-17T00:56:52.951Z,1016.93
2018-12-17T00:57:52.752Z,1016.9
2018-12-17T00:58:53.068Z,1016.87
2018-12-17T00:59:52.762Z,1016.89
2018-12-17T01:00:52.820Z,1016.91
2018-12-17T01:01:53.188Z,1016.95
2018-12-17T01:02:52.993Z,1016.98
2018-12-17T01:03:52.809Z,1016.96
2018-12-17T01:04:52.769Z,1016.97
2018-12-17T01:05:52.756Z,1016.95
2018-12-17T01:06:53.224Z,1016.98
2018-12-17T01:07:52.770Z,1016.95
2018-12-17T01:08:53.033Z,1016.99
2018-12-17T01:09:52.816Z,1017
2018-12-17T01:10:53.243Z,1016.96
2018-12-17T01:11:52.966Z,1017
2018-12-17T01:12:52.745Z,1016.99
2018-12-17T01:13:52.714Z,1017.08
2018-12-17T01:14:52.866Z,1017.06
2018-12-17T01:15:52.931Z,1017.09
2018-12-17T01:16:52.925Z,1017.08
2018-12-17T01:17:52.722Z,1017.06
2018-12-17T01:18:52.826Z,1017.07
2018-12-17T01:19:52.952Z,1017.14
2018-12-17T01:20:52.770Z,1017.11
2018-12-17T01:21:52.733Z,1017.12
2018-12-17T01:22:52.959Z,1017.14
2018-12-17T01:23:52.716Z,1017.14
2018-12-17T01:24:52.733Z,1017.17
2018-12-17T01:25:53.103Z,1017.23
2018-12-17T01:26:52.793Z,1017.24
2018-12-17T01:27:52.694Z,1017.26
2018-12-17T01:28:52.881Z,1017.3
2018-12-17T01:29:52.992Z,1017.27
2018-12-17T01:30:52.829Z,1017.28
2018-12-17T01:31:52.721Z,1017.32
2018-12-17T01:32:52.985Z,1017.34
2018-12-17T01:33:52.736Z,1017.35
2018-12-17T01:34:52.721Z,1017.39
2018-12-17T01:35:52.727Z,1017.41
2018-12-17T01:36:52.976Z,1017.42
2018-12-17T01:37:52.765Z,1017.39
2018-12-17T01:38:52.720Z,1017.41
2018-12-17T01:39:52.700Z,1017.42
2018-12-17T01:40:52.726Z,1017.41
2018-12-17T01:41:52.719Z,1017.41
2018-12-17T01:42:52.730Z,1017.45
2018-12-17T01:43:52.785Z,1017.45
2018-12-17T01:44:52.709Z,1017.45
2018-12-17T01:45:52.686Z,1017.46
2018-12-17T01:46:52.746Z,1017.4
2018-12-17T01:47:52.709Z,1017.4
2018-12-17T01:48:52.735Z,1017.41
2018-12-17T01:49:52.699Z,1017.43
2018-12-17T01:50:53.158Z,1017.38
2018-12-17T01:51:52.943Z,1017.38
2018-12-17T01:52:52.745Z,1017.38
2018-12-17T01:53:53.509Z,1017.38
2018-12-17T01:54:52.902Z,1017.34
2018-12-17T01:55:52.911Z,1017.34
2018-12-17T01:56:52.991Z,1017.32
2018-12-17T01:57:52.560Z,1017.33
2018-12-17T01:58:52.735Z,1017.37
2018-12-17T01:59:52.729Z,1017.37
2018-12-17T02:00:53.977Z,1017.42
2018-12-17T02:01:52.927Z,1017.38
2018-12-17T02:02:52.712Z,1017.37
2018-12-17T02:03:52.898Z,1017.39
2018-12-17T02:04:52.803Z,1017.34
2018-12-17T02:05:53.117Z,1017.37
2018-12-17T02:06:52.986Z,1017.32
2018-12-17T02:07:52.679Z,1017.33
2018-12-17T02:08:52.724Z,1017.37
2018-12-17T02:09:52.747Z,1017.43
2018-12-17T02:10:52.785Z,1017.38
2018-12-17T02:11:52.690Z,1017.37
2018-12-17T02:12:52.697Z,1017.42
2018-12-17T02:13:52.704Z,1017.43
2018-12-17T02:14:52.676Z,1017.41
2018-12-17T02:15:52.807Z,1017.43
2018-12-17T02:16:52.731Z,1017.43
2018-12-17T02:17:53.170Z,1017.41
2018-12-17T02:18:52.844Z,1017.42
2018-12-17T02:19:52.704Z,1017.48
2018-12-17T02:20:52.887Z,1017.45
2018-12-17T02:21:52.622Z,1017.48
2018-12-17T02:22:53.461Z,1017.5
2018-12-17T02:23:52.657Z,1017.52
2018-12-17T02:24:52.744Z,1017.48
2018-12-17T02:25:52.844Z,1017.53
2018-12-17T02:26:52.822Z,1017.53
2018-12-17T02:27:53.068Z,1017.5
2018-12-17T02:28:52.869Z,1017.54
2018-12-17T02:29:53.009Z,1017.52
2018-12-17T02:30:52.766Z,1017.56
2018-12-17T02:31:52.725Z,1017.63
2018-12-17T02:32:52.653Z,1017.66
2018-12-17T02:33:52.992Z,1017.65
2018-12-17T02:34:53.100Z,1017.7
2018-12-17T02:35:52.756Z,1017.72
2018-12-17T02:36:52.755Z,1017.73
2018-12-17T02:37:53.045Z,1017.75
2018-12-17T02:38:52.707Z,1017.71
2018-12-17T02:39:52.587Z,1017.68
2018-12-17T02:40:53.097Z,1017.71
2018-12-17T02:41:52.877Z,1017.76
2018-12-17T02:42:52.867Z,1017.8
2018-12-17T02:43:53.011Z,1017.76
2018-12-17T02:44:52.590Z,1017.79
2018-12-17T02:45:52.779Z,1017.84
2018-12-17T02:46:52.653Z,1017.82
2018-12-17T02:47:52.829Z,1017.81
2018-12-17T02:48:52.797Z,1017.78
2018-12-17T02:49:52.971Z,1017.76
2018-12-17T02:50:52.733Z,1017.79
2018-12-17T02:51:52.598Z,1017.79
2018-12-17T02:52:52.610Z,1017.76
2018-12-17T02:53:52.776Z,1017.81
2018-12-17T02:54:52.931Z,1017.79
2018-12-17T02:55:52.685Z,1017.83
2018-12-17T02:56:52.595Z,1017.85
2018-12-17T02:57:52.624Z,1017.85
2018-12-17T02:58:52.915Z,1017.9
2018-12-17T02:59:52.574Z,1017.89
2018-12-17T03:00:52.789Z,1017.88
2018-12-17T03:01:52.582Z,1017.85
2018-12-17T03:02:52.918Z,1017.91
2018-12-17T03:03:52.985Z,1017.91
2018-12-17T03:04:52.709Z,1017.93
2018-12-17T03:05:52.651Z,1017.92
2018-12-17T03:06:52.720Z,1017.89
2018-12-17T03:07:52.768Z,1017.92
2018-12-17T03:08:52.775Z,1017.97
2018-12-17T03:09:52.573Z,1017.96
2018-12-17T03:10:52.686Z,1018.01
2018-12-17T03:11:52.848Z,1018.01
2018-12-17T03:12:52.548Z,1018.05
2018-12-17T03:13:52.546Z,1018.03
2018-12-17T03:14:52.939Z,1018.13
2018-12-17T03:15:52.549Z,1018.08
2018-12-17T03:16:52.645Z,1018.08
2018-12-17T03:17:52.807Z,1018.09
2018-12-17T03:18:52.919Z,1018.13
2018-12-17T03:19:52.531Z,1018.19
2018-12-17T03:20:52.828Z,1018.18
2018-12-17T03:21:52.539Z,1018.18
2018-12-17T03:22:52.606Z,1018.26
2018-12-17T03:23:52.763Z,1018.24
2018-12-17T03:24:52.652Z,1018.24
2018-12-17T03:25:52.566Z,1018.27
2018-12-17T03:26:52.595Z,1018.27
2018-12-17T03:27:52.579Z,1018.27
2018-12-17T03:28:52.588Z,1018.27
2018-12-17T03:29:52.536Z,1018.25
2018-12-17T03:30:53.070Z,1018.31
2018-12-17T03:31:52.551Z,1018.33
2018-12-17T03:32:52.699Z,1018.35
2018-12-17T03:33:52.535Z,1018.36
2018-12-17T03:34:52.776Z,1018.39
2018-12-17T03:35:52.619Z,1018.41
2018-12-17T03:36:52.514Z,1018.44
2018-12-17T03:37:52.914Z,1018.43
2018-12-17T03:38:52.729Z,1018.42
2018-12-17T03:39:52.587Z,1018.48
2018-12-17T03:40:52.830Z,1018.47
2018-12-17T03:41:52.759Z,1018.49
2018-12-17T03:42:52.626Z,1018.54
2018-12-17T03:43:52.629Z,1018.53
2018-12-17T03:44:52.614Z,1018.55
2018-12-17T03:45:53.061Z,1018.54
2018-12-17T03:46:52.914Z,1018.58
2018-12-17T03:47:52.519Z,1018.63
2018-12-17T03:48:52.691Z,1018.58
2018-12-17T03:49:52.628Z,1018.6
2018-12-17T03:50:52.617Z,1018.61
2018-12-17T03:51:52.914Z,1018.68
2018-12-17T03:52:52.612Z,1018.68
2018-12-17T03:53:52.555Z,1018.7
2018-12-17T03:54:53.129Z,1018.67
2018-12-17T03:55:52.575Z,1018.67
2018-12-17T03:56:52.850Z,1018.68
2018-12-17T03:57:52.527Z,1018.66
2018-12-17T03:58:59.523Z,1018.66
2018-12-17T03:59:52.497Z,1018.7
2018-12-17T04:00:52.534Z,1018.67
2018-12-17T04:01:52.653Z,1018.67
2018-12-17T04:02:52.684Z,1018.71
2018-12-17T04:03:52.525Z,1018.71
2018-12-17T04:04:52.546Z,1018.7
2018-12-17T04:05:52.500Z,1018.7
2018-12-17T04:06:52.620Z,1018.77
2018-12-17T04:07:53.339Z,1018.74
2018-12-17T04:08:52.555Z,1018.73
2018-12-17T04:09:52.885Z,1018.74
2018-12-17T04:10:52.569Z,1018.75
2018-12-17T04:11:52.563Z,1018.73
2018-12-17T04:12:52.568Z,1018.76
2018-12-17T04:13:52.626Z,1018.74
2018-12-17T04:14:52.499Z,1018.77
2018-12-17T04:15:52.809Z,1018.76
2018-12-17T04:16:52.471Z,1018.76
2018-12-17T04:17:52.518Z,1018.73
2018-12-17T04:18:52.947Z,1018.76
2018-12-17T04:19:52.597Z,1018.8
2018-12-17T04:20:53.010Z,1018.79
2018-12-17T04:21:53.099Z,1018.83
2018-12-17T04:22:52.498Z,1018.83
2018-12-17T04:23:52.722Z,1018.83
2018-12-17T04:24:52.593Z,1018.81
2018-12-17T04:25:52.947Z,1018.82
2018-12-17T04:26:52.685Z,1018.81
2018-12-17T04:27:52.525Z,1018.85
2018-12-17T04:28:52.637Z,1018.9
2018-12-17T04:29:52.512Z,1018.9
2018-12-17T04:30:52.528Z,1018.89
2018-12-17T04:31:52.712Z,1018.89
2018-12-17T04:32:52.457Z,1018.9
2018-12-17T04:33:52.668Z,1018.87
2018-12-17T04:34:52.644Z,1018.87
2018-12-17T04:35:53.324Z,1018.94
2018-12-17T04:36:52.510Z,1018.92
2018-12-17T04:37:52.595Z,1018.97
2018-12-17T04:38:52.713Z,1018.99
2018-12-17T04:39:52.684Z,1018.96
2018-12-17T04:40:52.558Z,1019.04
2018-12-17T04:41:52.509Z,1019.02
2018-12-17T04:42:52.484Z,1019.03
2018-12-17T04:43:52.536Z,1019.03
2018-12-17T04:44:52.468Z,1019.06
2018-12-17T04:45:52.652Z,1019.08
2018-12-17T04:46:52.528Z,1019.03
2018-12-17T04:47:52.507Z,1019.12
2018-12-17T04:48:52.592Z,1019.16
2018-12-17T04:49:52.445Z,1019.17
2018-12-17T04:50:52.453Z,1019.16
2018-12-17T04:51:52.444Z,1019.18
2018-12-17T04:52:52.439Z,1019.12
2018-12-17T04:53:52.485Z,1019.21
2018-12-17T04:54:52.447Z,1019.17
2018-12-17T04:55:52.499Z,1019.16
2018-12-17T04:56:52.460Z,1019.15
2018-12-17T04:57:52.729Z,1019.16
2018-12-17T04:58:52.740Z,1019.21
2018-12-17T04:59:52.417Z,1019.2
2018-12-17T05:00:52.438Z,1019.19
2018-12-17T05:01:52.496Z,1019.17
2018-12-17T05:02:52.509Z,1019.18
2018-12-17T05:03:52.406Z,1019.25
2018-12-17T05:04:52.402Z,1019.24
2018-12-17T05:05:52.410Z,1019.21
2018-12-17T05:06:52.450Z,1019.12
2018-12-17T05:07:52.385Z,1019.23
2018-12-17T05:08:52.424Z,1019.19
2018-12-17T05:09:52.516Z,1019.22
2018-12-17T05:10:52.416Z,1019.16
2018-12-17T05:11:52.560Z,1019.2
2018-12-17T05:12:52.538Z,1019.19
2018-12-17T05:13:52.408Z,1019.23
2018-12-17T05:14:52.436Z,1019.19
2018-12-17T05:15:52.598Z,1019.24
2018-12-17T05:16:52.663Z,1019.28
2018-12-17T05:17:52.384Z,1019.33
2018-12-17T05:18:52.470Z,1019.28
2018-12-17T05:19:52.586Z,1019.32
2018-12-17T05:20:52.470Z,1019.34
2018-12-17T05:21:52.510Z,1019.4
2018-12-17T05:22:52.594Z,1019.43
2018-12-17T05:23:52.737Z,1019.43
2018-12-17T05:24:52.690Z,1019.42
2018-12-17T05:25:52.472Z,1019.49
2018-12-17T05:26:52.848Z,1019.47
2018-12-17T05:27:52.699Z,1019.46
2018-12-17T05:28:52.448Z,1019.51
2018-12-17T05:29:52.421Z,1019.47
2018-12-17T05:30:52.491Z,1019.5
2018-12-17T05:31:52.583Z,1019.52
2018-12-17T05:32:52.494Z,1019.53
2018-12-17T05:33:53.206Z,1019.52
2018-12-17T05:34:52.422Z,1019.54
2018-12-17T05:35:52.498Z,1019.56
2018-12-17T05:36:52.668Z,1019.57
2018-12-17T05:37:52.549Z,1019.57
2018-12-17T05:38:53.208Z,1019.55
2018-12-17T05:39:52.378Z,1019.57
2018-12-17T05:40:52.661Z,1019.55
2018-12-17T05:41:52.498Z,1019.61
2018-12-17T05:42:52.406Z,1019.6
2018-12-17T05:43:52.801Z,1019.65
2018-12-17T05:44:52.351Z,1019.64
2018-12-17T05:45:52.394Z,1019.69
2018-12-17T05:46:52.393Z,1019.64
2018-12-17T05:47:52.417Z,1019.67
2018-12-17T05:48:52.356Z,1019.68
2018-12-17T05:49:52.591Z,1019.76
2018-12-17T05:50:52.480Z,1019.73
2018-12-17T05:51:52.768Z,1019.76
2018-12-17T05:52:52.598Z,1019.79
2018-12-17T05:53:52.345Z,1019.74
2018-12-17T05:54:52.573Z,1019.78
2018-12-17T05:55:52.370Z,1019.79
2018-12-17T05:56:52.403Z,1019.82
2018-12-17T05:57:52.455Z,1019.78
2018-12-17T05:58:52.409Z,1019.83
2018-12-17T05:59:52.467Z,1019.85
2018-12-17T06:00:52.454Z,1019.88
2018-12-17T06:01:52.489Z,1019.82
2018-12-17T06:02:52.428Z,1019.91
2018-12-17T06:03:52.358Z,1019.83
2018-12-17T06:04:52.370Z,1019.88
2018-12-17T06:05:52.432Z,1019.88
2018-12-17T06:06:52.558Z,1019.88
2018-12-17T06:07:52.626Z,1019.93
2018-12-17T06:08:52.451Z,1019.97
2018-12-17T06:09:52.320Z,1019.95
2018-12-17T06:10:52.380Z,1019.99
2018-12-17T06:11:52.369Z,1019.97
2018-12-17T06:12:52.766Z,1020.01
2018-12-17T06:13:52.364Z,1020.06
2018-12-17T06:14:52.594Z,1020.08
2018-12-17T06:15:52.325Z,1020.05
2018-12-17T06:16:52.375Z,1020.08
2018-12-17T06:17:52.466Z,1020.06
2018-12-17T06:18:52.569Z,1020.09
2018-12-17T06:19:52.348Z,1020.15
2018-12-17T06:20:52.500Z,1020.17
2018-12-17T06:21:52.498Z,1020.2
2018-12-17T06:22:52.446Z,1020.21
2018-12-17T06:23:52.742Z,1020.21
2018-12-17T06:24:52.656Z,1020.26
2018-12-17T06:25:52.583Z,1020.25
2018-12-17T06:26:52.441Z,1020.26
2018-12-17T06:27:52.353Z,1020.28
2018-12-17T06:28:52.413Z,1020.29
2018-12-17T06:29:52.450Z,1020.3
2018-12-17T06:30:52.339Z,1020.32
2018-12-17T06:31:52.441Z,1020.35
2018-12-17T06:32:52.340Z,1020.37
2018-12-17T06:33:52.302Z,1020.34
2018-12-17T06:34:52.303Z,1020.36
2018-12-17T06:35:52.388Z,1020.41
2018-12-17T06:36:52.496Z,1020.41
2018-12-17T06:37:52.319Z,1020.43
2018-12-17T06:38:52.316Z,1020.47
2018-12-17T06:39:52.541Z,1020.46
2018-12-17T06:40:52.292Z,1020.52
2018-12-17T06:41:52.302Z,1020.47
2018-12-17T06:42:52.420Z,1020.51
2018-12-17T06:43:52.374Z,1020.51
2018-12-17T06:44:52.279Z,1020.57
2018-12-17T06:45:52.286Z,1020.52
2018-12-17T06:46:52.286Z,1020.56
2018-12-17T06:47:52.298Z,1020.56
2018-12-17T06:48:52.325Z,1020.54
2018-12-17T06:49:52.502Z,1020.57
2018-12-17T06:50:52.549Z,1020.55
2018-12-17T06:51:52.317Z,1020.52
2018-12-17T06:52:52.432Z,1020.54
2018-12-17T06:53:52.476Z,1020.56
2018-12-17T06:54:55.162Z,1020.56
2018-12-17T06:55:52.364Z,1020.63
2018-12-17T06:56:52.320Z,1020.67
2018-12-17T06:57:52.445Z,1020.68
2018-12-17T06:58:52.284Z,1020.71
2018-12-17T06:59:52.544Z,1020.69
2018-12-17T07:00:52.482Z,1020.71
2018-12-17T07:01:52.619Z,1020.68
2018-12-17T07:02:52.385Z,1020.71
2018-12-17T07:03:52.243Z,1020.7
2018-12-17T07:04:52.374Z,1020.71
2018-12-17T07:05:52.317Z,1020.77
2018-12-17T07:06:52.385Z,1020.75
2018-12-17T07:07:52.498Z,1020.72
2018-12-17T07:08:52.611Z,1020.74
2018-12-17T07:09:52.230Z,1020.82
2018-12-17T07:10:52.243Z,1020.89
2018-12-17T07:11:52.269Z,1020.88
2018-12-17T07:12:52.267Z,1020.86
2018-12-17T07:13:52.474Z,1020.84
2018-12-17T07:14:52.220Z,1020.89
2018-12-17T07:15:52.221Z,1020.92
2018-12-17T07:16:52.357Z,1020.92
2018-12-17T07:17:52.279Z,1020.94
2018-12-17T07:18:52.320Z,1020.98
2018-12-17T07:19:52.248Z,1020.95
2018-12-17T07:20:52.374Z,1020.94
2018-12-17T07:21:52.632Z,1020.95
2018-12-17T07:22:52.397Z,1020.96
2018-12-17T07:23:52.277Z,1020.96
2018-12-17T07:24:53.095Z,1020.98
2018-12-17T07:25:52.589Z,1021
2018-12-17T07:26:52.322Z,1021.03
2018-12-17T07:27:52.403Z,1021.03
2018-12-17T07:28:52.339Z,1021.1
2018-12-17T07:29:52.243Z,1021.09
2018-12-17T07:30:52.221Z,1021.18
2018-12-17T07:31:52.332Z,1021.15
2018-12-17T07:32:52.424Z,1021.17
2018-12-17T07:33:52.244Z,1021.19
2018-12-17T07:34:52.251Z,1021.27
2018-12-17T07:35:52.950Z,1021.24
2018-12-17T07:36:52.241Z,1021.25
2018-12-17T07:37:52.503Z,1021.26
2018-12-17T07:38:52.239Z,1021.35
2018-12-17T07:39:52.184Z,1021.36
2018-12-17T07:40:52.297Z,1021.34
2018-12-17T07:41:52.227Z,1021.38
2018-12-17T07:42:52.370Z,1021.38
2018-12-17T07:43:52.313Z,1021.44
2018-12-17T07:44:53.065Z,1021.42
2018-12-17T07:45:52.258Z,1021.5
2018-12-17T07:46:52.256Z,1021.49
2018-12-17T07:47:52.230Z,1021.51
2018-12-17T07:48:52.270Z,1021.63
2018-12-17T07:49:52.490Z,1021.56
2018-12-17T07:50:52.295Z,1021.6
2018-12-17T07:51:52.323Z,1021.57
2018-12-17T07:52:52.340Z,1021.64
2018-12-17T07:53:52.544Z,1021.57
2018-12-17T07:54:52.363Z,1021.61
2018-12-17T07:55:52.423Z,1021.64
2018-12-17T07:56:52.330Z,1021.69
2018-12-17T07:57:52.950Z,1021.65
2018-12-17T07:58:52.371Z,1021.63
2018-12-17T07:59:57.082Z,1021.66
2018-12-17T08:00:52.226Z,1021.71
2018-12-17T08:01:52.546Z,1021.74
2018-12-17T08:02:52.319Z,1021.73
2018-12-17T08:03:52.234Z,1021.77
2018-12-17T08:04:52.325Z,1021.77
2018-12-17T08:05:52.265Z,1021.8
2018-12-17T08:06:52.166Z,1021.78
2018-12-17T08:07:52.195Z,1021.75
2018-12-17T08:08:52.275Z,1021.77
2018-12-17T08:09:52.341Z,1021.8
2018-12-17T08:10:52.629Z,1021.81
2018-12-17T08:11:52.328Z,1021.84
2018-12-17T08:12:52.156Z,1021.82
2018-12-17T08:13:52.220Z,1021.86
2018-12-17T08:14:52.179Z,1021.85
2018-12-17T08:15:52.180Z,1021.82
2018-12-17T08:16:52.414Z,1021.85
2018-12-17T08:17:52.232Z,1021.87
2018-12-17T08:18:52.171Z,1021.88
2018-12-17T08:19:52.236Z,1021.93
2018-12-17T08:20:52.209Z,1021.94
2018-12-17T08:21:52.172Z,1021.9
2018-12-17T08:22:52.192Z,1021.97
2018-12-17T08:23:52.293Z,1022.03
2018-12-17T08:24:52.148Z,1022.03
2018-12-17T08:25:52.138Z,1022.03
2018-12-17T08:26:52.377Z,1022.08
2018-12-17T08:27:52.542Z,1022.03
2018-12-17T08:28:52.264Z,1022.02
2018-12-17T08:29:52.180Z,1022.04
2018-12-17T08:30:52.526Z,1022.05
2018-12-17T08:31:52.150Z,1022.04
2018-12-17T08:32:52.258Z,1022.1
2018-12-17T08:33:52.364Z,1022.09
2018-12-17T08:34:52.120Z,1022.19
2018-12-17T08:35:52.175Z,1022.17
2018-12-17T08:36:52.763Z,1022.18
2018-12-17T08:37:52.375Z,1022.17
2018-12-17T08:38:52.387Z,1022.2
2018-12-17T08:39:52.549Z,1022.22
2018-12-17T08:40:52.969Z,1022.21
2018-12-17T08:41:52.366Z,1022.25
2018-12-17T08:42:52.553Z,1022.21
2018-12-17T08:43:52.241Z,1022.28
2018-12-17T08:44:52.190Z,1022.24
2018-12-17T08:45:52.115Z,1022.21
2018-12-17T08:46:52.300Z,1022.24
2018-12-17T08:47:52.327Z,1022.3
2018-12-17T08:48:52.303Z,1022.3
2018-12-17T08:49:52.358Z,1022.29
2018-12-17T08:50:52.146Z,1022.28
2018-12-17T08:51:52.137Z,1022.25
2018-12-17T08:52:52.232Z,1022.26
2018-12-17T08:53:53.252Z,1022.28
2018-12-17T08:54:52.282Z,1022.25
2018-12-17T08:55:52.280Z,1022.25
2018-12-17T08:56:52.259Z,1022.27
2018-12-17T08:57:52.210Z,1022.29
2018-12-17T08:58:52.166Z,1022.3
2018-12-17T08:59:52.294Z,1022.32
2018-12-17T09:00:52.170Z,1022.35
2018-12-17T09:01:52.121Z,1022.35
2018-12-17T09:02:52.228Z,1022.32
2018-12-17T09:03:52.251Z,1022.32
2018-12-17T09:04:52.280Z,1022.29
2018-12-17T09:05:52.355Z,1022.37
2018-12-17T09:06:52.292Z,1022.36
2018-12-17T09:07:52.126Z,1022.39
2018-12-17T09:08:52.243Z,1022.44
2018-12-17T09:09:52.113Z,1022.47
2018-12-17T09:10:52.256Z,1022.49
2018-12-17T09:11:52.367Z,1022.49
2018-12-17T09:12:52.350Z,1022.52
2018-12-17T09:13:52.186Z,1022.53
2018-12-17T09:14:52.332Z,1022.57
2018-12-17T09:15:52.163Z,1022.67
2018-12-17T09:16:52.160Z,1022.65
2018-12-17T09:17:52.075Z,1022.61
2018-12-17T09:18:52.226Z,1022.64
2018-12-17T09:19:52.895Z,1022.69
2018-12-17T09:20:52.060Z,1022.7
2018-12-17T09:21:52.254Z,1022.76
2018-12-17T09:22:52.082Z,1022.71
2018-12-17T09:23:52.269Z,1022.79
2018-12-17T09:24:52.457Z,1022.75
2018-12-17T09:25:52.067Z,1022.8
2018-12-17T09:26:52.102Z,1022.79
2018-12-17T09:27:52.248Z,1022.78
2018-12-17T09:28:52.512Z,1022.82
2018-12-17T09:29:52.226Z,1022.83
2018-12-17T09:30:52.388Z,1022.85
2018-12-17T09:31:52.356Z,1022.83
2018-12-17T09:32:52.074Z,1022.9
2018-12-17T09:33:52.441Z,1022.91
2018-12-17T09:34:52.226Z,1022.9
2018-12-17T09:35:54.557Z,1022.87
2018-12-17T09:36:52.267Z,1022.89
2018-12-17T09:37:52.391Z,1022.86
2018-12-17T09:38:52.152Z,1022.89
2018-12-17T09:39:52.726Z,1022.89
2018-12-17T09:40:52.353Z,1022.87
2018-12-17T09:41:52.096Z,1022.9
2018-12-17T09:42:52.741Z,1022.96
2018-12-17T09:43:52.171Z,1022.94
2018-12-17T09:44:52.145Z,1022.93
2018-12-17T09:45:52.266Z,1022.97
2018-12-17T09:46:52.130Z,1022.94
2018-12-17T09:47:52.060Z,1022.95
2018-12-17T09:48:52.086Z,1022.97
2018-12-17T09:49:52.204Z,1022.98
2018-12-17T09:50:52.068Z,1022.97
2018-12-17T09:51:52.080Z,1022.95
2018-12-17T09:52:52.010Z,1022.91
2018-12-17T09:53:52.581Z,1022.93
2018-12-17T09:54:52.060Z,1022.97
2018-12-17T09:55:52.141Z,1022.99
2018-12-17T09:56:52.069Z,1023
2018-12-17T09:57:52.096Z,1023
2018-12-17T09:58:52.450Z,1023.02
2018-12-17T09:59:52.163Z,1023.01
2018-12-17T10:00:52.587Z,1022.95
2018-12-17T10:01:52.102Z,1023
2018-12-17T10:02:52.031Z,1022.98
2018-12-17T10:03:52.048Z,1023.02
2018-12-17T10:04:52.084Z,1023.05
2018-12-17T10:05:52.129Z,1023.05
2018-12-17T10:06:52.033Z,1023.01
2018-12-17T10:07:52.143Z,1022.95
2018-12-17T10:08:52.151Z,1022.97
2018-12-17T10:09:52.117Z,1022.98
2018-12-17T10:10:52.117Z,1022.99
2018-12-17T10:11:52.664Z,1022.98
2018-12-17T10:12:52.159Z,1022.97
2018-12-17T10:13:52.085Z,1023.01
2018-12-17T10:14:52.109Z,1023
2018-12-17T10:15:51.994Z,1022.98
2018-12-17T10:16:52.618Z,1023.02
2018-12-17T10:17:52.071Z,1022.99
2018-12-17T10:18:52.608Z,1023.05
2018-12-17T10:19:52.088Z,1023.03
2018-12-17T10:20:52.840Z,1023.06
2018-12-17T10:21:52.223Z,1023.07
2018-12-17T10:22:52.021Z,1023.03
2018-12-17T10:23:52.114Z,1023.03
2018-12-17T10:24:52.098Z,1023.03
2018-12-17T10:25:52.228Z,1022.99
2018-12-17T10:26:52.263Z,1023
2018-12-17T10:27:52.181Z,1023.05
2018-12-17T10:28:52.089Z,1023.07
2018-12-17T10:29:52.195Z,1023.12
2018-12-17T10:30:52.192Z,1023.1
2018-12-17T10:31:52.194Z,1023.07
2018-12-17T10:32:52.289Z,1023.13
2018-12-17T10:33:51.982Z,1023.13
2018-12-17T10:34:52.149Z,1023.11
2018-12-17T10:35:52.177Z,1023.1
2018-12-17T10:36:51.973Z,1023.11
2018-12-17T10:37:52.059Z,1023.1
2018-12-17T10:38:52.345Z,1023.08
2018-12-17T10:39:52.161Z,1023.08
2018-12-17T10:40:52.272Z,1023.05
2018-12-17T10:41:52.245Z,1023
2018-12-17T10:42:52.269Z,1023.01
2018-12-17T10:43:52.108Z,1023.08
2018-12-17T10:44:52.168Z,1023.08
2018-12-17T10:45:52.139Z,1023.05
2018-12-17T10:46:52.209Z,1023.08
2018-12-17T10:47:52.279Z,1023.06
2018-12-17T10:48:52.071Z,1023.07
2018-12-17T10:49:51.985Z,1022.99
2018-12-17T10:50:52.210Z,1023.07
2018-12-17T10:51:52.121Z,1023.08
2018-12-17T10:52:52.496Z,1023.05
2018-12-17T10:53:52.058Z,1023.12
2018-12-17T10:54:52.189Z,1023.15
2018-12-17T10:55:52.029Z,1023.14
2018-12-17T10:56:51.985Z,1023.11
2018-12-17T10:57:52.308Z,1023.1
2018-12-17T10:58:52.147Z,1023.11
2018-12-17T10:59:52.009Z,1023.05
2018-12-17T11:00:52.169Z,1023.03
2018-12-17T11:01:52.070Z,1023
2018-12-17T11:02:52.154Z,1023
2018-12-17T11:03:52.221Z,1023.01
2018-12-17T11:04:51.956Z,1023.01
2018-12-17T11:05:52.200Z,1022.97
2018-12-17T11:06:52.130Z,1022.99
2018-12-17T11:07:52.292Z,1022.97
2018-12-17T11:08:52.109Z,1022.95
2018-12-17T11:09:52.301Z,1022.95
2018-12-17T11:10:51.999Z,1022.95
2018-12-17T11:11:52.012Z,1022.92
2018-12-17T11:12:52.355Z,1022.9
2018-12-17T11:13:52.455Z,1022.91
2018-12-17T11:14:52.809Z,1022.94
2018-12-17T11:15:52.371Z,1022.91
2018-12-17T11:16:51.965Z,1022.93
2018-12-17T11:17:52.093Z,1022.87
2018-12-17T11:18:51.936Z,1022.92
2018-12-17T11:19:52.006Z,1022.9
2018-12-17T11:20:52.216Z,1022.89
2018-12-17T11:21:52.219Z,1022.9
2018-12-17T11:22:52.087Z,1022.9
2018-12-17T11:23:52.040Z,1022.9
2018-12-17T11:24:52.239Z,1022.92
2018-12-17T11:25:52.549Z,1022.91
2018-12-17T11:26:52.057Z,1022.88
2018-12-17T11:27:52.263Z,1022.9
2018-12-17T11:28:51.922Z,1022.87
2018-12-17T11:29:52.212Z,1022.91
2018-12-17T11:30:52.166Z,1022.92
2018-12-17T11:31:52.197Z,1022.91
2018-12-17T11:32:52.093Z,1022.97
2018-12-17T11:33:52.074Z,1022.92
2018-12-17T11:34:52.107Z,1022.91
2018-12-17T11:35:52.736Z,1022.96
2018-12-17T11:36:52.282Z,1022.91
2018-12-17T11:37:52.084Z,1022.98
2018-12-17T11:38:51.940Z,1022.99
2018-12-17T11:39:52.531Z,1023
2018-12-17T11:40:52.007Z,1023.03
2018-12-17T11:41:52.539Z,1023.07
2018-12-17T11:42:52.047Z,1023.02
2018-12-17T11:43:52.197Z,1023.04
2018-12-17T11:44:51.897Z,1023.04
2018-12-17T11:45:51.988Z,1023.02
2018-12-17T11:46:52.164Z,1023.02
2018-12-17T11:47:52.156Z,1023.02
2018-12-17T11:48:51.858Z,1023.01
2018-12-17T11:49:51.985Z,1022.93
2018-12-17T11:50:52.071Z,1022.96
2018-12-17T11:51:52.047Z,1022.94
2018-12-17T11:52:52.088Z,1022.94
2018-12-17T11:53:52.208Z,1022.94
2018-12-17T11:54:51.894Z,1022.93
2018-12-17T11:55:52.705Z,1022.96
2018-12-17T11:56:52.173Z,1022.94
2018-12-17T11:57:51.920Z,1022.93
2018-12-17T11:58:52.296Z,1022.94
2018-12-17T11:59:51.847Z,1022.91
2018-12-17T12:00:54.249Z,1022.92
2018-12-17T12:01:51.967Z,1022.96
2018-12-17T12:02:59.386Z,1022.95
2018-12-17T12:03:51.982Z,1022.96
2018-12-17T12:04:52.166Z,1022.95
2018-12-17T12:05:52.066Z,1022.94
2018-12-17T12:06:51.960Z,1022.94
2018-12-17T12:07:52.234Z,1023
2018-12-17T12:08:51.891Z,1022.97